Time;durP1;ratioP1;P1;durP2;ratioP2;P2;SDS_P1;SDS_P2;PMS_P1;PMS_P2;Temp;Humidity;BMP_temperature;BMP_pressure;BME280_temperature;BME280_humidity;BME280_pressure;Samples;Min_cycle;Max_cycle;Signal;HPM_P1;HPM_P2
2022/01/16 00:00:15;;;;;;;66.93;36.57;;;3.20;99.90;;;;;;5058404;28;20185;-66
2022/01/16 00:05:24;;;;;;;67.67;37.17;;;3.20;99.90;;;;;;5066698;28;20191;-68
2022/01/16 00:07:51;;;;;;;70.90;35.40;;;3.10;99.90;;;;;;5080522;28;20657;-66
2022/01/16 00:10:18;;;;;;;59.43;33.93;;;3.20;99.90;;;;;;5093309;28;20193;-66
2022/01/16 00:12:48;;;;;;;73.03;36.47;;;3.50;99.90;;;;;;5064972;28;20403;-66
2022/01/16 00:15:15;;;;;;;62.70;34.83;;;3.40;99.90;;;;;;5074223;28;20247;-68
2022/01/16 00:17:52;;;;;;;69.23;35.73;;;3.40;99.90;;;;;;5094332;28;20181;-66
2022/01/16 00:20:18;;;;;;;57.43;31.23;;;3.40;99.90;;;;;;5084379;28;20562;-66
2022/01/16 00:22:46;;;;;;;71.20;35.63;;;3.30;99.90;;;;;;5074776;28;20208;-66
2022/01/16 00:25:12;;;;;;;69.00;34.27;;;3.40;99.90;;;;;;5089032;28;20188;-66
2022/01/16 00:27:37;;;;;;;66.23;37.90;;;3.50;99.90;;;;;;5062478;28;20295;-66
2022/01/16 00:30:06;;;;;;;65.30;33.70;;;3.50;99.90;;;;;;5072988;28;20556;-66
2022/01/16 00:32:32;;;;;;;88.97;38.93;;;3.60;99.90;;;;;;5058391;28;20185;-69
2022/01/16 00:34:58;;;;;;;67.47;35.43;;;3.60;99.90;;;;;;5079119;28;20667;-67
2022/01/16 00:37:23;;;;;;;76.07;36.83;;;3.70;99.90;;;;;;5093124;28;20182;-66
2022/01/16 00:39:49;;;;;;;85.50;39.00;;;3.80;99.90;;;;;;5092740;28;20209;-66
2022/01/16 00:42:15;;;;;;;75.10;37.03;;;3.80;99.90;;;;;;5092818;28;20234;-66
2022/01/16 00:44:41;;;;;;;69.17;36.57;;;3.80;99.90;;;;;;5093208;28;20184;-66
2022/01/16 00:47:07;;;;;;;75.83;37.57;;;4.00;99.90;;;;;;5061175;28;20205;-66
2022/01/16 00:49:34;;;;;;;85.63;39.73;;;4.00;99.90;;;;;;5087289;28;20185;-67
2022/01/16 00:52:00;;;;;;;77.50;39.57;;;4.10;99.90;;;;;;5091488;28;20657;-66
2022/01/16 00:54:26;;;;;;;83.93;41.97;;;4.10;99.90;;;;;;5065679;28;20193;-66
2022/01/16 00:56:52;;;;;;;84.20;41.97;;;4.10;99.90;;;;;;5082237;28;20190;-66
2022/01/16 00:59:17;;;;;;;80.20;40.30;;;4.30;99.90;;;;;;5070631;28;20233;-66
2022/01/16 01:01:43;;;;;;;81.93;41.40;;;4.30;99.90;;;;;;5059059;28;20634;-66
2022/01/16 01:04:09;;;;;;;77.67;40.30;;;4.10;99.90;;;;;;5060191;28;20176;-66
2022/01/16 01:06:35;;;;;;;77.93;42.03;;;3.90;99.90;;;;;;5072517;28;20180;-66
2022/01/16 01:09:00;;;;;;;83.50;39.33;;;4.10;99.90;;;;;;5067759;28;20296;-66
2022/01/16 01:11:29;;;;;;;90.50;44.07;;;4.10;99.90;;;;;;5075275;28;20202;-66
2022/01/16 01:16:21;;;;;;;80.67;40.30;;;4.30;99.90;;;;;;5082906;28;20216;-67
2022/01/16 01:18:46;;;;;;;87.20;41.63;;;4.40;99.90;;;;;;5068532;28;20278;-66
2022/01/16 01:21:28;;;;;;;81.10;41.80;;;4.30;99.90;;;;;;5059174;28;20550;-66
2022/01/16 01:23:55;;;;;;;74.37;39.27;;;4.10;99.90;;;;;;5092197;28;20181;-70
2022/01/16 01:26:26;;;;;;;83.63;42.80;;;4.10;99.90;;;;;;5058376;28;20193;-66
2022/01/16 01:28:52;;;;;;;76.00;40.30;;;4.20;99.90;;;;;;5080581;28;20640;-66
2022/01/16 01:31:18;;;;;;;85.73;40.27;;;4.30;99.90;;;;;;5055331;28;20213;-66
2022/01/16 01:33:43;;;;;;;81.43;38.93;;;4.60;99.90;;;;;;5055397;28;20242;-66
2022/01/16 01:36:09;;;;;;;79.90;41.90;;;4.60;99.90;;;;;;5068962;28;20592;-66
2022/01/16 01:38:35;;;;;;;73.87;39.93;;;4.40;99.90;;;;;;5090691;28;20649;-66
2022/01/16 01:41:01;;;;;;;78.50;37.97;;;4.40;99.90;;;;;;5062433;28;20250;-66
2022/01/16 01:51:27;;;;;;;76.07;35.90;;;4.70;99.90;;;;;;5090455;28;20284;-66
2022/01/16 01:53:55;;;;;;;74.17;36.40;;;4.70;99.90;;;;;;5073934;28;20188;-66
2022/01/16 01:56:23;;;;;;;70.20;37.13;;;4.60;99.90;;;;;;5092170;28;20210;-66
2022/01/16 01:58:54;;;;;;;77.97;38.63;;;4.70;99.90;;;;;;5081163;28;20569;-67
2022/01/16 02:01:20;;;;;;;75.37;34.33;;;4.70;99.90;;;;;;5086371;28;20195;-66
2022/01/16 02:03:48;;;;;;;76.07;39.47;;;4.60;99.90;;;;;;5077825;28;20619;-67
2022/01/16 02:06:20;;;;;;;76.03;35.90;;;4.60;99.90;;;;;;5070904;28;20173;-66
2022/01/16 02:08:52;;;;;;;70.77;35.70;;;4.60;99.90;;;;;;5085714;28;20208;-66
2022/01/16 02:11:20;;;;;;;72.43;37.13;;;4.70;99.90;;;;;;5077942;28;20204;-66
2022/01/16 02:14:11;;;;;;;77.03;36.73;;;4.80;99.90;;;;;;5081779;28;20205;-66
2022/01/16 02:28:08;;;;;;;69.33;31.27;;;4.70;99.90;;;;;;5087101;28;20220;-66
2022/01/16 02:35:50;;;;;;;64.33;32.10;;;5.00;99.90;;;;;;5095213;28;20195;-66
2022/01/16 02:38:16;;;;;;;64.67;32.03;;;5.00;99.90;;;;;;5094464;28;20224;-67
2022/01/16 02:40:49;;;;;;;62.73;32.57;;;5.10;99.90;;;;;;5073796;28;20201;-70
2022/01/16 02:43:17;;;;;;;63.47;31.50;;;5.20;99.90;;;;;;5076909;28;20173;-67
2022/01/16 02:45:47;;;;;;;62.40;31.23;;;5.10;99.90;;;;;;5070514;28;20177;-67
2022/01/16 02:48:13;;;;;;;65.77;32.33;;;5.00;99.90;;;;;;5076175;28;20197;-67
2022/01/16 02:50:38;;;;;;;63.27;30.97;;;5.00;99.90;;;;;;5088505;28;20189;-67
2022/01/16 02:53:09;;;;;;;70.53;35.83;;;5.10;99.90;;;;;;5090116;28;20181;-67
2022/01/16 02:55:40;;;;;;;56.60;30.30;;;5.20;99.90;;;;;;5091848;28;20555;-68
2022/01/16 02:58:05;;;;;;;58.30;30.37;;;5.10;99.90;;;;;;5094974;28;20210;-67
2022/01/16 03:00:31;;;;;;;74.60;33.83;;;5.20;99.90;;;;;;5062582;28;20193;-67
2022/01/16 03:02:57;;;;;;;61.77;32.90;;;5.10;99.90;;;;;;5067778;28;20605;-66
2022/01/16 03:05:22;;;;;;;72.07;33.17;;;5.10;99.90;;;;;;5078240;28;20188;-66
2022/01/16 03:07:48;;;;;;;60.83;32.23;;;5.20;99.90;;;;;;5089151;28;20215;-67
2022/01/16 03:12:46;;;;;;;67.43;31.37;;;5.40;99.90;;;;;;5083737;28;20203;-67
2022/01/16 03:15:14;;;;;;;60.27;30.80;;;5.40;99.90;;;;;;5088043;28;20185;-67
2022/01/16 03:23:13;;;;;;;64.57;32.83;;;5.20;99.90;;;;;;5094844;28;20699;-66
2022/01/16 03:25:39;;;;;;;57.90;31.40;;;5.10;99.90;;;;;;5065305;28;20173;-67
2022/01/16 03:28:05;;;;;;;60.50;32.10;;;5.10;99.90;;;;;;5068591;28;20217;-66
2022/01/16 03:30:31;;;;;;;63.60;31.43;;;5.20;99.90;;;;;;5074966;28;20215;-67
2022/01/16 03:32:56;;;;;;;77.60;33.17;;;5.20;99.90;;;;;;5075672;28;20545;-67
2022/01/16 03:35:24;;;;;;;72.63;34.47;;;5.10;99.90;;;;;;5074950;28;20192;-67
2022/01/16 03:37:49;;;;;;;71.53;33.03;;;5.10;99.90;;;;;;5090138;28;20193;-67
2022/01/16 03:40:16;;;;;;;63.90;28.13;;;5.20;99.90;;;;;;5082190;28;20545;-66
2022/01/16 03:42:41;;;;;;;66.83;31.83;;;5.30;99.90;;;;;;5082657;28;20190;-67
2022/01/16 03:45:09;;;;;;;65.57;31.20;;;5.30;99.90;;;;;;5068225;28;20188;-67
2022/01/16 03:47:35;;;;;;;61.30;30.93;;;5.20;99.90;;;;;;5086466;28;20205;-67
2022/01/16 03:50:03;;;;;;;65.50;32.50;;;5.20;99.90;;;;;;5065301;28;20204;-67
2022/01/16 03:52:29;;;;;;;59.30;31.80;;;5.20;99.90;;;;;;5078393;28;20643;-67
2022/01/16 03:54:55;;;;;;;58.57;32.30;;;5.10;99.90;;;;;;5086863;28;20177;-67
2022/01/16 03:57:20;;;;;;;65.90;31.97;;;5.00;99.90;;;;;;5074644;28;20192;-67
2022/01/16 03:59:46;;;;;;;64.13;31.03;;;5.00;99.90;;;;;;5070000;28;20182;-67
2022/01/16 04:02:12;;;;;;;59.03;29.47;;;5.00;99.90;;;;;;5076689;28;20177;-67
2022/01/16 04:04:38;;;;;;;62.23;30.80;;;5.10;99.90;;;;;;5058998;28;20665;-67
2022/01/16 04:07:04;;;;;;;62.77;28.03;;;5.10;99.90;;;;;;5075316;28;20180;-66
2022/01/16 04:09:30;;;;;;;64.57;31.67;;;5.10;99.90;;;;;;5090988;28;20244;-66
2022/01/16 04:11:57;;;;;;;67.93;30.80;;;5.10;99.90;;;;;;5058227;28;20220;-67
2022/01/16 04:17:19;;;;;;;64.27;30.03;;;4.90;99.90;;;;;;5083690;28;20223;-66
2022/01/16 04:19:46;;;;;;;68.30;32.27;;;4.90;99.90;;;;;;5084931;28;20174;-66
2022/01/16 04:22:13;;;;;;;67.47;32.80;;;4.80;99.90;;;;;;5074231;28;20185;-66
2022/01/16 04:24:39;;;;;;;61.00;30.50;;;4.80;99.90;;;;;;5077202;28;20177;-66
2022/01/16 04:27:06;;;;;;;59.93;31.23;;;4.80;99.90;;;;;;5092170;28;20264;-67
2022/01/16 04:29:32;;;;;;;66.77;31.97;;;4.90;99.90;;;;;;5092981;28;20203;-66
2022/01/16 04:31:58;;;;;;;61.80;31.10;;;4.90;99.90;;;;;;5093496;28;20638;-66
2022/01/16 04:34:23;;;;;;;63.77;32.70;;;4.80;99.90;;;;;;5083800;28;20229;-66
2022/01/16 04:36:49;;;;;;;72.63;32.77;;;4.90;99.90;;;;;;5092906;28;20208;-67
2022/01/16 04:39:18;;;;;;;64.77;29.03;;;4.90;99.90;;;;;;5058192;28;20176;-66
2022/01/16 04:44:29;;;;;;;70.70;30.20;;;4.60;99.90;;;;;;5082649;28;20235;-66
2022/01/16 04:46:55;;;;;;;56.70;31.27;;;4.60;99.90;;;;;;5092442;28;20634;-66
2022/01/16 04:49:21;;;;;;;69.77;32.77;;;4.60;99.90;;;;;;5083934;28;20185;-67
2022/01/16 04:51:47;;;;;;;65.90;32.63;;;4.60;99.90;;;;;;5039076;28;20177;-66
2022/01/16 04:54:13;;;;;;;67.30;32.63;;;4.70;99.90;;;;;;5061285;28;20176;-66
2022/01/16 04:56:39;;;;;;;60.83;31.10;;;4.70;99.90;;;;;;5074917;28;20276;-67
2022/01/16 04:59:05;;;;;;;59.40;29.63;;;4.60;99.90;;;;;;5087138;28;20196;-66
2022/01/16 05:01:31;;;;;;;63.87;31.57;;;4.50;99.90;;;;;;5075954;28;20643;-66
2022/01/16 05:03:57;;;;;;;63.70;31.37;;;4.30;99.90;;;;;;5092496;28;20177;-67
2022/01/16 05:06:23;;;;;;;71.33;32.07;;;4.30;99.90;;;;;;5088223;28;20521;-66
2022/01/16 05:08:49;;;;;;;64.70;33.07;;;4.40;99.90;;;;;;5062838;28;20553;-67
2022/01/16 05:11:20;;;;;;;70.60;30.37;;;4.40;99.90;;;;;;5073848;28;20546;-67
2022/01/16 05:18:56;;;;;;;78.30;33.67;;;4.40;99.90;;;;;;5084345;28;20219;-67
2022/01/16 05:21:22;;;;;;;60.83;28.40;;;4.60;99.90;;;;;;5077876;28;20638;-67
2022/01/16 05:23:48;;;;;;;75.20;34.67;;;4.60;99.90;;;;;;5040371;28;20560;-67
2022/01/16 05:26:17;;;;;;;73.37;30.63;;;4.50;99.90;;;;;;5073656;28;20275;-68
2022/01/16 05:28:44;;;;;;;65.40;29.80;;;4.50;99.90;;;;;;5062480;28;20213;-67
2022/01/16 05:31:09;;;;;;;64.23;31.60;;;4.60;99.90;;;;;;5073285;28;20205;-67
2022/01/16 05:33:35;;;;;;;67.60;32.73;;;4.50;99.90;;;;;;5092768;28;20261;-66
2022/01/16 05:36:01;;;;;;;67.17;32.33;;;4.30;99.90;;;;;;5089572;28;20196;-66
2022/01/16 05:38:27;;;;;;;64.93;30.70;;;4.30;99.90;;;;;;5095652;28;20188;-66
2022/01/16 05:40:52;;;;;;;71.37;32.60;;;4.40;99.90;;;;;;5090114;28;20223;-66
2022/01/16 05:43:18;;;;;;;66.23;33.87;;;4.30;99.90;;;;;;5070609;28;20630;-66
2022/01/16 05:45:44;;;;;;;69.10;32.17;;;4.30;99.90;;;;;;5091518;28;20633;-66
2022/01/16 05:48:10;;;;;;;61.43;28.63;;;4.50;99.90;;;;;;5079434;28;20236;-66
2022/01/16 05:50:35;;;;;;;66.83;30.10;;;4.60;99.90;;;;;;5080846;28;20196;-66
2022/01/16 05:53:02;;;;;;;65.43;29.10;;;4.60;99.90;;;;;;5071240;28;20193;-66
2022/01/16 05:55:33;;;;;;;82.40;32.10;;;4.60;99.90;;;;;;5079649;28;20598;-69
2022/01/16 05:57:59;;;;;;;70.83;31.83;;;4.60;99.90;;;;;;5062573;28;20189;-66
2022/01/16 06:00:25;;;;;;;72.87;33.93;;;4.60;99.90;;;;;;5085714;28;20184;-66
2022/01/16 06:02:50;;;;;;;65.30;30.77;;;4.50;99.90;;;;;;5099271;28;20196;-66
2022/01/16 06:05:16;;;;;;;62.83;30.07;;;4.60;99.90;;;;;;5086148;28;20208;-66
2022/01/16 06:07:51;;;;;;;64.67;28.90;;;4.70;99.90;;;;;;5050696;28;20205;-66
2022/01/16 06:10:17;;;;;;;69.53;30.80;;;4.70;99.90;;;;;;5077342;28;20945;-66
2022/01/16 06:12:43;;;;;;;77.90;32.50;;;4.80;99.90;;;;;;5099073;28;20216;-66
2022/01/16 06:15:09;;;;;;;65.93;29.40;;;4.90;99.90;;;;;;5098586;28;20212;-66
2022/01/16 06:17:35;;;;;;;80.90;31.17;;;4.90;99.90;;;;;;5098717;28;20570;-66
2022/01/16 06:20:03;;;;;;;74.10;31.30;;;4.80;99.90;;;;;;5080511;28;20233;-66
2022/01/16 06:22:29;;;;;;;72.67;29.87;;;4.80;99.90;;;;;;5097122;28;20619;-66
2022/01/16 06:24:54;;;;;;;68.87;30.80;;;4.90;99.90;;;;;;5081432;28;20215;-66
2022/01/16 06:27:20;;;;;;;66.20;27.93;;;4.90;99.90;;;;;;5098502;28;20551;-66
2022/01/16 06:29:46;;;;;;;71.37;30.00;;;5.00;99.90;;;;;;5078934;28;20184;-66
2022/01/16 06:32:11;;;;;;;65.43;27.83;;;5.00;99.90;;;;;;5084102;28;20189;-66
2022/01/16 06:34:37;;;;;;;69.77;29.07;;;5.10;99.90;;;;;;5078010;28;20189;-66
2022/01/16 06:37:03;;;;;;;66.87;28.90;;;4.90;99.90;;;;;;5079378;28;20197;-67
2022/01/16 06:39:29;;;;;;;68.10;27.53;;;5.00;99.90;;;;;;5087395;28;20184;-66
2022/01/16 06:41:55;;;;;;;73.23;30.43;;;5.00;99.90;;;;;;5089979;28;20254;-66
2022/01/16 06:44:23;;;;;;;70.93;28.67;;;5.00;99.90;;;;;;5066702;28;20186;-66
2022/01/16 06:46:49;;;;;;;59.23;26.03;;;5.00;99.90;;;;;;5074828;28;20223;-66
2022/01/16 06:49:14;;;;;;;58.57;27.77;;;4.90;99.90;;;;;;5071164;28;20247;-66
2022/01/16 06:51:40;;;;;;;70.13;28.53;;;5.10;99.90;;;;;;5077226;28;20192;-66
2022/01/16 06:54:06;;;;;;;67.33;26.83;;;5.20;99.90;;;;;;5093768;28;20185;-66
2022/01/16 06:56:32;;;;;;;69.30;30.77;;;5.20;99.90;;;;;;5096019;28;20634;-66
2022/01/16 06:58:58;;;;;;;71.53;29.47;;;5.30;99.90;;;;;;5076983;28;20184;-66
2022/01/16 07:01:25;;;;;;;68.37;30.17;;;5.40;99.90;;;;;;5079454;28;20230;-66
2022/01/16 07:03:51;;;;;;;61.93;29.83;;;5.30;99.90;;;;;;5066147;28;20194;-67
2022/01/16 07:06:17;;;;;;;76.37;33.40;;;5.40;99.90;;;;;;5075208;28;20314;-66
2022/01/16 07:08:43;;;;;;;77.57;29.60;;;5.30;99.90;;;;;;5086533;28;20704;-67
2022/01/16 07:11:08;;;;;;;69.43;29.90;;;5.20;99.90;;;;;;5076879;28;20275;-66
2022/01/16 07:13:34;;;;;;;75.33;32.20;;;5.10;99.90;;;;;;5078300;28;20208;-66
2022/01/16 07:16:00;;;;;;;68.33;29.97;;;5.10;99.90;;;;;;5094476;28;20193;-66
2022/01/16 07:18:27;;;;;;;71.00;31.80;;;4.90;99.90;;;;;;5074937;28;20576;-66
2022/01/16 07:20:54;;;;;;;78.97;33.17;;;4.90;99.90;;;;;;5092405;28;20215;-66
2022/01/16 07:23:20;;;;;;;76.10;31.83;;;4.90;99.90;;;;;;5094437;28;20210;-66
2022/01/16 07:25:47;;;;;;;76.83;30.97;;;4.80;99.90;;;;;;5069443;28;20235;-66
2022/01/16 07:28:14;;;;;;;71.40;31.70;;;4.80;99.90;;;;;;5079283;28;20601;-66
2022/01/16 07:30:40;;;;;;;87.60;34.30;;;4.90;99.90;;;;;;5076707;28;20185;-66
2022/01/16 07:33:07;;;;;;;73.03;30.20;;;4.90;99.90;;;;;;5092635;28;20188;-67
2022/01/16 07:35:34;;;;;;;74.90;30.27;;;4.80;99.90;;;;;;5074778;28;20276;-67
2022/01/16 07:38:00;;;;;;;82.60;29.57;;;4.90;99.90;;;;;;5071036;28;20222;-67
2022/01/16 07:40:27;;;;;;;70.57;29.53;;;4.80;99.90;;;;;;5064969;28;20645;-67
2022/01/16 07:42:53;;;;;;;70.30;29.93;;;4.90;99.90;;;;;;5063863;28;20627;-67
2022/01/16 07:45:19;;;;;;;63.57;27.80;;;4.90;99.90;;;;;;5079128;28;20637;-67
2022/01/16 07:47:45;;;;;;;70.13;30.80;;;4.90;99.90;;;;;;5090553;28;20572;-67
2022/01/16 07:50:14;;;;;;;59.97;27.63;;;5.00;99.90;;;;;;5074737;28;20234;-67
2022/01/16 07:52:39;;;;;;;67.47;28.57;;;5.00;99.90;;;;;;5075220;28;20299;-67
2022/01/16 07:55:06;;;;;;;68.13;29.07;;;4.80;99.90;;;;;;5094900;28;20625;-67
2022/01/16 07:57:31;;;;;;;70.93;30.70;;;4.90;99.90;;;;;;5074283;28;20192;-67
2022/01/16 07:59:57;;;;;;;62.50;25.80;;;4.80;99.90;;;;;;5090023;28;20555;-66
2022/01/16 08:02:23;;;;;;;54.43;26.50;;;4.80;99.90;;;;;;5074419;28;20177;-67
2022/01/16 08:04:49;;;;;;;58.93;26.43;;;4.90;99.90;;;;;;5056595;28;20240;-69
2022/01/16 08:07:14;;;;;;;58.93;26.10;;;5.00;99.90;;;;;;5056715;28;20193;-67
2022/01/16 08:09:40;;;;;;;65.23;29.00;;;5.00;99.90;;;;;;5092227;28;20185;-67
2022/01/16 08:12:07;;;;;;;64.53;27.27;;;5.00;99.90;;;;;;5093284;28;20193;-68
2022/01/16 08:14:34;;;;;;;64.67;25.03;;;5.20;99.90;;;;;;5093913;28;20187;-68
2022/01/16 08:17:00;;;;;;;63.23;27.83;;;5.10;99.90;;;;;;5094490;28;20185;-67
2022/01/16 08:19:27;;;;;;;61.93;25.57;;;5.00;99.90;;;;;;5080348;28;20198;-68
2022/01/16 08:21:54;;;;;;;61.23;23.20;;;5.10;99.90;;;;;;5072164;28;20204;-67
2022/01/16 08:24:20;;;;;;;62.47;25.53;;;5.00;99.90;;;;;;5073937;28;20181;-67
2022/01/16 08:26:46;;;;;;;58.67;23.63;;;5.00;99.90;;;;;;5074927;28;20189;-67
2022/01/16 08:29:12;;;;;;;55.00;24.77;;;4.90;99.90;;;;;;5091309;28;20339;-67
2022/01/16 08:31:38;;;;;;;68.20;25.73;;;4.90;99.90;;;;;;5076113;28;20511;-67
2022/01/16 08:34:03;;;;;;;59.00;25.73;;;5.00;99.90;;;;;;5092884;28;20173;-67
2022/01/16 08:36:29;;;;;;;66.17;27.67;;;5.00;99.90;;;;;;5074553;28;20233;-67
2022/01/16 08:38:58;;;;;;;72.50;26.93;;;5.00;99.90;;;;;;5092540;28;20238;-67
2022/01/16 08:41:24;;;;;;;62.07;26.53;;;4.90;99.90;;;;;;5073428;28;20180;-66
2022/01/16 08:43:51;;;;;;;69.90;27.93;;;5.00;99.90;;;;;;5075253;28;20188;-66
2022/01/16 08:46:17;;;;;;;70.07;28.23;;;5.10;99.90;;;;;;5074435;28;20275;-67
2022/01/16 08:48:44;;;;;;;63.07;28.13;;;5.20;99.90;;;;;;5075082;28;20740;-67
2022/01/16 08:51:10;;;;;;;62.13;25.93;;;5.10;99.90;;;;;;5091636;28;20272;-67
2022/01/16 08:53:36;;;;;;;62.53;26.13;;;5.10;99.90;;;;;;5091283;28;20256;-67
2022/01/16 08:56:02;;;;;;;71.60;29.30;;;5.00;99.90;;;;;;5091879;28;20193;-66
2022/01/16 08:58:28;;;;;;;66.63;25.83;;;5.10;99.90;;;;;;5074598;28;20196;-66
2022/01/16 09:00:53;;;;;;;65.63;27.70;;;5.00;99.90;;;;;;5082098;28;20247;-67
2022/01/16 09:03:21;;;;;;;63.40;26.20;;;5.00;99.90;;;;;;5060238;28;20190;-66
2022/01/16 09:05:47;;;;;;;60.53;25.73;;;4.90;99.90;;;;;;5083595;28;20188;-66
2022/01/16 09:08:18;;;;;;;60.13;27.23;;;4.90;99.90;;;;;;5073263;28;20216;-66
2022/01/16 09:10:44;;;;;;;78.23;28.67;;;4.90;99.90;;;;;;5074444;28;20180;-67
2022/01/16 09:13:11;;;;;;;68.33;29.87;;;4.90;99.90;;;;;;5088883;28;20212;-67
2022/01/16 09:15:41;;;;;;;59.53;25.90;;;5.00;99.90;;;;;;5059323;28;20267;-68
2022/01/16 09:18:06;;;;;;;70.23;27.17;;;5.10;99.90;;;;;;5079613;28;20223;-65
2022/01/16 09:20:33;;;;;;;59.13;27.87;;;5.20;99.90;;;;;;5082520;28;20208;-66
2022/01/16 09:22:59;;;;;;;59.80;26.47;;;5.00;99.90;;;;;;5067778;28;20182;-67
2022/01/16 09:25:25;;;;;;;73.07;26.40;;;5.10;99.90;;;;;;5069996;28;20192;-67
2022/01/16 09:27:51;;;;;;;74.63;29.47;;;5.20;99.90;;;;;;5073276;28;20595;-64
2022/01/16 09:30:18;;;;;;;65.20;26.60;;;5.10;99.90;;;;;;5086733;28;20177;-67
2022/01/16 09:32:47;;;;;;;65.37;29.10;;;5.20;99.90;;;;;;5068141;28;20230;-67
2022/01/16 09:35:13;;;;;;;70.53;30.07;;;5.10;99.90;;;;;;5054813;28;20275;-67
2022/01/16 09:37:39;;;;;;;73.10;28.50;;;5.00;99.90;;;;;;5060463;28;20272;-66
2022/01/16 09:40:06;;;;;;;60.03;27.17;;;5.10;99.90;;;;;;5088352;28;20185;-66
2022/01/16 09:42:34;;;;;;;69.13;28.87;;;5.20;99.90;;;;;;5076029;28;20267;-66
2022/01/16 09:45:00;;;;;;;57.33;24.27;;;5.20;99.90;;;;;;5085264;28;20187;-66
2022/01/16 09:47:25;;;;;;;68.10;26.43;;;5.20;99.90;;;;;;5077072;28;20220;-65
2022/01/16 09:49:52;;;;;;;75.50;29.13;;;5.10;99.90;;;;;;5091694;28;20586;-65
2022/01/16 09:52:18;;;;;;;64.00;28.13;;;5.00;99.90;;;;;;5091993;28;20191;-65
2022/01/16 09:54:44;;;;;;;67.60;28.77;;;5.10;99.90;;;;;;5091996;28;20196;-65
2022/01/16 09:57:12;;;;;;;65.93;28.43;;;5.10;99.90;;;;;;5091976;28;20188;-65
2022/01/16 09:59:38;;;;;;;62.93;26.73;;;5.10;99.90;;;;;;5092060;28;20191;-65
2022/01/16 10:02:05;;;;;;;67.90;30.30;;;5.20;99.90;;;;;;5091677;28;20645;-65
2022/01/16 10:04:39;;;;;;;63.77;28.73;;;5.20;99.90;;;;;;5072629;28;20189;-63
2022/01/16 10:07:10;;;;;;;72.83;27.70;;;5.30;99.90;;;;;;5091977;28;20165;-64
2022/01/16 10:09:37;;;;;;;71.40;30.43;;;5.10;99.90;;;;;;5073997;28;20279;-65
2022/01/16 10:12:13;;;;;;;71.83;27.07;;;5.10;99.90;;;;;;5073429;28;20196;-64
2022/01/16 10:14:46;;;;;;;62.17;28.60;;;5.10;99.90;;;;;;5092660;28;20223;-65
2022/01/16 10:17:24;;;;;;;71.80;28.77;;;5.00;99.90;;;;;;5074871;28;20280;-65
2022/01/16 10:20:00;;;;;;;60.80;27.10;;;5.10;99.90;;;;;;5073495;28;20176;-65
2022/01/16 10:22:42;;;;;;;64.83;26.00;;;5.00;99.90;;;;;;5075177;28;20188;-65
2022/01/16 10:25:09;;;;;;;59.03;26.60;;;5.10;99.90;;;;;;5091125;28;20238;-65
2022/01/16 10:27:37;;;;;;;60.70;26.73;;;5.40;99.90;;;;;;5088194;28;20213;-65
2022/01/16 10:30:07;;;;;;;63.00;27.57;;;5.20;99.90;;;;;;5089661;28;20268;-65
2022/01/16 10:32:36;;;;;;;57.90;28.10;;;5.30;99.90;;;;;;5095138;28;20668;-65
2022/01/16 10:35:09;;;;;;;62.00;28.10;;;5.30;99.90;;;;;;5077864;28;20185;-65
2022/01/16 10:37:36;;;;;;;65.70;26.90;;;5.20;99.90;;;;;;5060274;28;20181;-65
2022/01/16 10:40:07;;;;;;;49.63;26.23;;;5.20;99.90;;;;;;5067997;28;20219;-66
2022/01/16 10:42:33;;;;;;;58.37;24.27;;;5.10;99.90;;;;;;5076638;28;20209;-66
2022/01/16 10:45:14;;;;;;;54.17;23.87;;;5.10;99.90;;;;;;5066480;28;20276;-65
2022/01/16 10:47:39;;;;;;;61.97;25.07;;;5.10;99.90;;;;;;5075714;28;20204;-66
2022/01/16 10:50:16;;;;;;;57.83;25.60;;;5.30;99.90;;;;;;5075740;28;20513;-66
2022/01/16 10:53:04;;;;;;;60.33;26.03;;;5.30;99.90;;;;;;5075947;28;20169;-67
2022/01/16 10:55:34;;;;;;;57.40;24.90;;;5.40;99.90;;;;;;5081369;28;20180;-66
2022/01/16 10:58:28;;;;;;;51.40;24.77;;;5.30;99.90;;;;;;5082251;28;20180;-66
2022/01/16 11:01:07;;;;;;;51.70;21.90;;;5.20;99.90;;;;;;5072317;28;20197;-66
2022/01/16 11:03:46;;;;;;;47.40;23.33;;;5.30;99.90;;;;;;5087759;28;20241;-67
2022/01/16 11:06:12;;;;;;;43.03;21.77;;;5.30;99.90;;;;;;5093706;28;20642;-66
2022/01/16 11:08:39;;;;;;;45.30;21.10;;;5.30;99.90;;;;;;5094467;28;20216;-66
2022/01/16 11:11:07;;;;;;;50.30;23.30;;;5.30;99.90;;;;;;5076519;28;20200;-67
2022/01/16 11:13:34;;;;;;;46.40;23.57;;;5.30;99.90;;;;;;5064759;28;20194;-66
2022/01/16 11:16:03;;;;;;;47.07;21.00;;;5.30;99.90;;;;;;5078145;28;20176;-67
2022/01/16 11:18:30;;;;;;;41.10;19.80;;;5.30;99.90;;;;;;5093824;28;20418;-69
2022/01/16 11:21:14;;;;;;;42.13;19.77;;;5.40;99.90;;;;;;5060384;28;20273;-67
2022/01/16 11:26:23;;;;;;;46.93;20.97;;;5.50;99.90;;;;;;5075318;28;20602;-67
2022/01/16 11:28:56;;;;;;;39.30;20.40;;;5.70;99.90;;;;;;5068173;28;20225;-67
2022/01/16 11:31:23;;;;;;;34.67;18.77;;;5.80;99.90;;;;;;5057267;28;20186;-67
2022/01/16 11:33:49;;;;;;;43.17;20.87;;;5.90;99.90;;;;;;5057510;28;20181;-67
2022/01/16 11:36:25;;;;;;;39.87;21.57;;;5.80;99.90;;;;;;5075346;28;20204;-67
2022/01/16 11:38:53;;;;;;;38.27;19.03;;;5.80;99.90;;;;;;5090064;28;20188;-66
2022/01/16 11:41:24;;;;;;;49.57;19.40;;;5.70;99.90;;;;;;5082418;28;20271;-66
2022/01/16 11:43:51;;;;;;;37.43;18.70;;;5.80;99.90;;;;;;5092036;28;20560;-66
2022/01/16 11:46:22;;;;;;;41.10;19.67;;;6.00;99.90;;;;;;5075701;28;20645;-66
2022/01/16 11:49:17;;;;;;;38.40;19.97;;;6.00;99.90;;;;;;5077585;28;20307;-67
2022/01/16 11:51:48;;;;;;;35.93;20.17;;;5.90;99.90;;;;;;5074777;28;20174;-66
2022/01/16 11:54:44;;;;;;;45.60;19.93;;;5.90;99.90;;;;;;5056555;28;20182;-68
2022/01/16 11:57:22;;;;;;;41.53;20.90;;;6.00;99.90;;;;;;5072989;28;20193;-66
2022/01/16 11:59:55;;;;;;;44.77;22.70;;;5.80;99.90;;;;;;5092144;28;20176;-67
2022/01/16 12:02:23;;;;;;;46.73;21.70;;;5.80;99.90;;;;;;5085168;28;20192;-66
2022/01/16 12:04:51;;;;;;;44.87;21.70;;;5.90;99.90;;;;;;5083458;28;20188;-67
2022/01/16 12:07:20;;;;;;;52.03;22.27;;;5.90;99.90;;;;;;5084286;28;20189;-67
2022/01/16 12:09:57;;;;;;;49.53;21.30;;;5.80;99.90;;;;;;5094556;28;20259;-67
2022/01/16 12:12:22;;;;;;;49.83;23.60;;;6.00;99.90;;;;;;5075593;28;20241;-67
2022/01/16 12:14:51;;;;;;;41.57;21.23;;;6.10;99.90;;;;;;5093497;28;20653;-67
2022/01/16 12:17:44;;;;;;;51.03;21.03;;;6.10;99.90;;;;;;5074577;28;20307;-70
2022/01/16 12:20:13;;;;;;;45.03;22.73;;;6.10;99.90;;;;;;5093788;28;20153;-66
2022/01/16 12:22:46;;;;;;;43.90;21.30;;;6.20;99.90;;;;;;5091175;28;20771;-66
2022/01/16 12:25:22;;;;;;;47.13;21.63;;;6.10;99.90;;;;;;5056323;28;20177;-66
2022/01/16 12:27:51;;;;;;;44.10;21.67;;;6.10;99.90;;;;;;5072318;28;20339;-67
2022/01/16 12:30:22;;;;;;;44.73;20.67;;;6.00;99.90;;;;;;5078583;28;20541;-66
2022/01/16 12:33:19;;;;;;;40.40;20.93;;;5.90;99.90;;;;;;5075454;28;20181;-66
2022/01/16 12:35:48;;;;;;;46.67;21.53;;;5.90;99.90;;;;;;5093195;28;20208;-67
2022/01/16 12:38:15;;;;;;;40.87;21.03;;;5.80;99.90;;;;;;5090648;28;20713;-67
2022/01/16 12:40:44;;;;;;;40.97;23.20;;;5.90;99.90;;;;;;5074116;28;20194;-67
2022/01/16 12:43:16;;;;;;;42.93;20.63;;;6.00;99.90;;;;;;5091392;28;20200;-67
2022/01/16 12:45:43;;;;;;;46.13;22.30;;;6.00;99.90;;;;;;5092783;28;20218;-67
2022/01/16 12:48:09;;;;;;;39.97;18.93;;;6.00;99.90;;;;;;5088897;28;20557;-67
2022/01/16 12:50:37;;;;;;;44.53;20.50;;;6.00;99.90;;;;;;5081987;28;20188;-67
2022/01/16 12:53:04;;;;;;;41.83;20.23;;;6.10;99.90;;;;;;5093144;28;20189;-67
2022/01/16 12:55:34;;;;;;;44.57;21.37;;;6.10;99.90;;;;;;5074098;28;20653;-67
2022/01/16 12:58:17;;;;;;;42.40;19.67;;;6.10;99.90;;;;;;5071592;28;20189;-67
2022/01/16 13:01:12;;;;;;;50.57;21.87;;;6.10;99.90;;;;;;5069104;28;20185;-67
2022/01/16 13:03:38;;;;;;;49.10;22.40;;;6.20;99.90;;;;;;5045768;28;20649;-67
2022/01/16 13:06:26;;;;;;;44.27;19.70;;;6.10;99.90;;;;;;5048703;28;20186;-67
2022/01/16 13:09:03;;;;;;;39.47;18.83;;;6.00;99.90;;;;;;5090988;28;20236;-67
2022/01/16 13:11:31;;;;;;;46.17;20.40;;;6.10;99.90;;;;;;5076675;28;20263;-67
2022/01/16 13:13:59;;;;;;;47.80;19.67;;;6.10;99.90;;;;;;5054680;28;20178;-67
2022/01/16 13:16:36;;;;;;;44.07;20.03;;;6.00;99.90;;;;;;5073481;28;20189;-66
2022/01/16 13:19:04;;;;;;;39.77;19.53;;;6.00;99.90;;;;;;5086765;28;20194;-66
2022/01/16 13:21:40;;;;;;;46.73;19.83;;;6.00;99.90;;;;;;5091328;28;20184;-67
2022/01/16 13:24:05;;;;;;;48.33;20.10;;;6.00;99.90;;;;;;5075461;28;20178;-67
2022/01/16 13:26:34;;;;;;;49.53;20.10;;;6.10;99.90;;;;;;5038509;28;20208;-66
2022/01/16 13:29:09;;;;;;;42.10;22.40;;;6.20;99.90;;;;;;5050106;28;20219;-66
2022/01/16 13:31:36;;;;;;;41.87;20.03;;;5.90;99.90;;;;;;5090191;28;20189;-66